Time;durP1;ratioP1;P1;durP2;ratioP2;P2;SDS_P1;SDS_P2;PMS_P1;PMS_P2;Temp;Humidity;BMP_temperature;BMP_pressure;BME280_temperature;BME280_humidity;BME280_pressure;Samples;Min_cycle;Max_cycle;Signal;HPM_P1;HPM_P2
2023/12/31 00:02:05;;;;;;;6.23;4.20;;;;;;;;;;4968713;28;21091;-65
2023/12/31 00:04:34;;;;;;;4.80;4.27;;;;;;;;;;4969047;28;20203;-65
2023/12/31 00:07:01;;;;;;;8.67;4.90;;;;;;;;;;4966821;28;20257;-66
2023/12/31 00:09:28;;;;;;;6.53;4.50;;;;;;;;;;4968507;28;20665;-65
2023/12/31 00:11:55;;;;;;;6.77;5.03;;;;;;;;;;4968829;28;20209;-65
2023/12/31 00:14:22;;;;;;;7.23;4.87;;;;;;;;;;4968606;28;20210;-65
2023/12/31 00:16:49;;;;;;;5.80;4.97;;;;;;;;;;4968821;28;20673;-65
2023/12/31 00:19:16;;;;;;;5.27;4.80;;;;;;;;;;4968725;28;20217;-65
2023/12/31 00:21:44;;;;;;;7.97;5.23;;;;;;;;;;4967975;28;20242;-65
2023/12/31 00:24:11;;;;;;;6.17;4.70;;;;;;;;;;4968663;28;20355;-66
2023/12/31 00:26:38;;;;;;;5.30;4.80;;;;;;;;;;4967942;28;20211;-65
2023/12/31 00:29:05;;;;;;;6.03;4.23;;;;;;;;;;4968419;28;20206;-65
2023/12/31 00:31:32;;;;;;;4.10;3.70;;;;;;;;;;4968428;28;20210;-65
2023/12/31 00:33:59;;;;;;;7.17;4.83;;;;;;;;;;4968363;28;20210;-65
2023/12/31 00:36:27;;;;;;;5.37;4.50;;;;;;;;;;4967821;28;20269;-65
2023/12/31 00:38:56;;;;;;;4.87;4.13;;;;;;;;;;4968467;28;20272;-65
2023/12/31 00:41:23;;;;;;;5.67;4.20;;;;;;;;;;4968189;28;20227;-65
2023/12/31 00:43:50;;;;;;;4.57;4.17;;;;;;;;;;4968237;28;20830;-65
2023/12/31 00:46:17;;;;;;;4.37;3.83;;;;;;;;;;4968430;28;20272;-65
2023/12/31 00:48:44;;;;;;;5.13;3.83;;;;;;;;;;4967974;28;20217;-65
2023/12/31 00:51:11;;;;;;;4.10;3.47;;;;;;;;;;4968353;28;20206;-65
2023/12/31 00:53:38;;;;;;;6.10;4.00;;;;;;;;;;4968050;28;20202;-65
2023/12/31 00:56:07;;;;;;;5.53;3.43;;;;;;;;;;4967848;28;20211;-65
2023/12/31 00:58:34;;;;;;;8.33;3.43;;;;;;;;;;4967228;28;20207;-66
2023/12/31 01:01:01;;;;;;;3.70;3.40;;;;;;;;;;4966164;28;20237;-65
2023/12/31 01:03:28;;;;;;;3.60;3.30;;;;;;;;;;4967532;28;20217;-65
2023/12/31 01:05:57;;;;;;;3.80;3.33;;;;;;;;;;4967578;28;20205;-65
2023/12/31 01:08:24;;;;;;;5.13;3.30;;;;;;;;;;4967933;28;20214;-65
2023/12/31 01:10:51;;;;;;;3.57;3.20;;;;;;;;;;4967894;28;20669;-65
2023/12/31 01:13:19;;;;;;;4.77;3.40;;;;;;;;;;4967486;28;20198;-65
2023/12/31 01:15:46;;;;;;;3.53;2.90;;;;;;;;;;4967144;28;20206;-65
2023/12/31 01:18:13;;;;;;;5.80;3.20;;;;;;;;;;4967590;28;21054;-65
2023/12/31 01:20:40;;;;;;;4.27;2.73;;;;;;;;;;4967686;28;20214;-65
2023/12/31 01:23:07;;;;;;;2.97;2.77;;;;;;;;;;4967562;28;20244;-65
2023/12/31 01:25:34;;;;;;;6.40;3.40;;;;;;;;;;4967353;28;20211;-65
2023/12/31 01:28:03;;;;;;;3.13;2.93;;;;;;;;;;4967613;28;20267;-65
2023/12/31 01:30:31;;;;;;;3.63;3.33;;;;;;;;;;4967710;28;20293;-64
2023/12/31 01:32:58;;;;;;;3.17;2.80;;;;;;;;;;4967509;28;20269;-65
2023/12/31 01:35:25;;;;;;;3.90;2.90;;;;;;;;;;4967011;28;20754;-65
2023/12/31 01:37:52;;;;;;;3.30;2.80;;;;;;;;;;4967208;28;20644;-65
2023/12/31 01:40:19;;;;;;;3.90;3.07;;;;;;;;;;4967418;28;20214;-65
2023/12/31 01:42:46;;;;;;;2.67;2.30;;;;;;;;;;4967187;28;20237;-65
2023/12/31 01:45:14;;;;;;;3.33;2.20;;;;;;;;;;4967121;28;20218;-65
2023/12/31 01:47:42;;;;;;;3.07;2.10;;;;;;;;;;4967683;28;20233;-65
2023/12/31 01:50:09;;;;;;;2.43;2.23;;;;;;;;;;4967478;28;20214;-65
2023/12/31 01:52:36;;;;;;;3.03;2.53;;;;;;;;;;4967251;28;20924;-65
2023/12/31 01:55:06;;;;;;;3.77;2.37;;;;;;;;;;4965825;28;20210;-65
2023/12/31 01:57:33;;;;;;;4.73;2.40;;;;;;;;;;4966948;28;20210;-65
2023/12/31 02:00:03;;;;;;;3.43;2.87;;;;;;;;;;4967291;28;20210;-65
2023/12/31 02:02:31;;;;;;;3.03;2.60;;;;;;;;;;4967503;28;20269;-65
2023/12/31 02:05:00;;;;;;;4.77;2.70;;;;;;;;;;4967160;28;20249;-65
2023/12/31 02:07:27;;;;;;;3.80;2.83;;;;;;;;;;4967047;28;20587;-65
2023/12/31 02:09:54;;;;;;;2.70;2.50;;;;;;;;;;4967193;28;20217;-65
2023/12/31 02:12:22;;;;;;;3.03;2.40;;;;;;;;;;4969380;28;20261;-65
2023/12/31 02:14:49;;;;;;;2.90;2.70;;;;;;;;;;4971042;28;20214;-65
2023/12/31 02:17:16;;;;;;;3.10;2.43;;;;;;;;;;4970768;28;20206;-65
2023/12/31 02:19:44;;;;;;;2.87;2.30;;;;;;;;;;4970872;28;20217;-65
2023/12/31 02:22:12;;;;;;;2.70;2.33;;;;;;;;;;4970736;28;20241;-65
2023/12/31 02:24:43;;;;;;;3.27;2.47;;;;;;;;;;4970566;28;20249;-65
2023/12/31 02:27:12;;;;;;;2.67;2.23;;;;;;;;;;4970325;28;20680;-64
2023/12/31 02:29:39;;;;;;;2.60;2.40;;;;;;;;;;4970637;28;20215;-64
2023/12/31 02:32:06;;;;;;;2.30;2.13;;;;;;;;;;4970394;28;20202;-64
2023/12/31 02:34:33;;;;;;;2.40;2.30;;;;;;;;;;4970905;28;20211;-64
2023/12/31 02:37:00;;;;;;;4.23;2.33;;;;;;;;;;4970687;28;20215;-64
2023/12/31 02:39:28;;;;;;;3.13;2.53;;;;;;;;;;4970447;28;20217;-64
2023/12/31 02:41:55;;;;;;;2.57;2.37;;;;;;;;;;4970345;28;20234;-64
2023/12/31 02:44:23;;;;;;;3.13;2.47;;;;;;;;;;4970175;28;20213;-64
2023/12/31 02:46:50;;;;;;;2.77;2.50;;;;;;;;;;4970166;28;20853;-64
2023/12/31 02:49:17;;;;;;;2.40;2.20;;;;;;;;;;4970173;28;20214;-64
2023/12/31 02:51:44;;;;;;;3.03;2.30;;;;;;;;;;4970185;28;20743;-64
2023/12/31 02:54:11;;;;;;;2.67;2.47;;;;;;;;;;4970403;28;20288;-64
2023/12/31 02:56:42;;;;;;;3.87;2.97;;;;;;;;;;4970099;28;20258;-64
2023/12/31 02:59:09;;;;;;;2.97;2.73;;;;;;;;;;4969770;28;20628;-65
2023/12/31 03:01:37;;;;;;;2.40;2.23;;;;;;;;;;4970041;28;20246;-64
2023/12/31 03:04:05;;;;;;;4.77;2.30;;;;;;;;;;4969528;28;20219;-63
2023/12/31 03:06:32;;;;;;;3.13;2.77;;;;;;;;;;4970160;28;20779;-65
2023/12/31 03:09:01;;;;;;;2.83;2.63;;;;;;;;;;4969665;28;20210;-64
2023/12/31 03:11:28;;;;;;;3.23;2.43;;;;;;;;;;4969141;28;20293;-64
2023/12/31 03:13:55;;;;;;;3.10;2.80;;;;;;;;;;4969464;28;20210;-65
2023/12/31 03:16:24;;;;;;;3.73;2.80;;;;;;;;;;4969412;28;20257;-64
2023/12/31 03:18:53;;;;;;;3.23;2.53;;;;;;;;;;4969782;28;20312;-64
2023/12/31 03:21:20;;;;;;;4.23;2.70;;;;;;;;;;4969516;28;20284;-65
2023/12/31 03:23:47;;;;;;;2.70;2.50;;;;;;;;;;4968041;28;20293;-64
2023/12/31 03:26:14;;;;;;;2.33;2.10;;;;;;;;;;4969470;28;20225;-64
2023/12/31 03:28:41;;;;;;;3.87;2.10;;;;;;;;;;4969390;28;20684;-65
2023/12/31 03:31:10;;;;;;;1.87;1.77;;;;;;;;;;4968944;28;20321;-65
2023/12/31 03:33:37;;;;;;;2.60;2.20;;;;;;;;;;4969598;28;20301;-64
2023/12/31 03:36:06;;;;;;;3.27;2.33;;;;;;;;;;4969199;28;20215;-65
2023/12/31 03:38:33;;;;;;;2.20;2.10;;;;;;;;;;4967280;28;20199;-64
2023/12/31 03:41:00;;;;;;;2.20;2.07;;;;;;;;;;4969141;28;20210;-64
2023/12/31 03:43:27;;;;;;;2.33;2.13;;;;;;;;;;4968888;28;20226;-64
2023/12/31 03:45:54;;;;;;;2.57;2.00;;;;;;;;;;4968784;28;20747;-64
2023/12/31 03:48:21;;;;;;;1.90;1.73;;;;;;;;;;4969272;28;20214;-64
2023/12/31 03:50:48;;;;;;;2.37;2.07;;;;;;;;;;4969359;28;20222;-64
2023/12/31 03:53:16;;;;;;;1.73;1.70;;;;;;;;;;4968918;28;20225;-64
2023/12/31 03:55:43;;;;;;;1.90;1.80;;;;;;;;;;4969027;28;20207;-64
2023/12/31 03:58:11;;;;;;;4.53;2.23;;;;;;;;;;4968865;28;20210;-64
2023/12/31 04:00:38;;;;;;;2.97;2.27;;;;;;;;;;4968962;28;20253;-64
2023/12/31 04:03:05;;;;;;;1.70;1.70;;;;;;;;;;4968786;28;20233;-64
2023/12/31 04:05:32;;;;;;;2.33;2.13;;;;;;;;;;4968592;28;20210;-64
2023/12/31 04:07:59;;;;;;;3.93;2.00;;;;;;;;;;4966270;28;20451;-64
2023/12/31 04:10:28;;;;;;;2.60;2.33;;;;;;;;;;4968805;28;20214;-64
2023/12/31 04:12:55;;;;;;;2.00;1.90;;;;;;;;;;4968472;28;20211;-64
2023/12/31 04:15:22;;;;;;;3.37;2.60;;;;;;;;;;4968156;28;20213;-64
2023/12/31 04:17:49;;;;;;;2.27;2.17;;;;;;;;;;4968591;28;20313;-65
2023/12/31 04:20:16;;;;;;;3.87;2.03;;;;;;;;;;4968498;28;20299;-64
2023/12/31 04:22:42;;;;;;;5.40;2.50;;;;;;;;;;4968028;28;20230;-64
2023/12/31 04:25:09;;;;;;;2.13;2.03;;;;;;;;;;4968303;28;20224;-64
2023/12/31 04:27:40;;;;;;;2.63;1.87;;;;;;;;;;4968099;28;20284;-64
2023/12/31 04:30:07;;;;;;;3.40;2.10;;;;;;;;;;4967941;28;20242;-64
2023/12/31 04:32:34;;;;;;;2.17;2.07;;;;;;;;;;4968812;28;20210;-64
2023/12/31 04:35:03;;;;;;;2.00;1.90;;;;;;;;;;4968250;28;20276;-65
2023/12/31 04:37:30;;;;;;;2.03;1.93;;;;;;;;;;4967729;28;20297;-64
2023/12/31 04:39:57;;;;;;;2.17;2.07;;;;;;;;;;4967381;28;20832;-64
2023/12/31 04:42:24;;;;;;;3.50;2.00;;;;;;;;;;4968125;28;20223;-64
2023/12/31 04:44:52;;;;;;;4.50;1.80;;;;;;;;;;4968212;28;20203;-64
2023/12/31 04:47:20;;;;;;;1.87;1.77;;;;;;;;;;4968247;28;20745;-64
2023/12/31 04:49:47;;;;;;;1.80;1.63;;;;;;;;;;4968254;28;20273;-63
2023/12/31 04:52:14;;;;;;;2.10;1.93;;;;;;;;;;4968309;28;20651;-65
2023/12/31 04:54:41;;;;;;;2.10;2.00;;;;;;;;;;4968036;28;20222;-64
2023/12/31 04:57:08;;;;;;;2.93;2.23;;;;;;;;;;4968128;28;20206;-64
2023/12/31 04:59:36;;;;;;;2.90;2.20;;;;;;;;;;4967519;28;20203;-64
2023/12/31 05:02:04;;;;;;;1.93;1.83;;;;;;;;;;4967040;28;20720;-64
2023/12/31 05:04:31;;;;;;;2.43;2.23;;;;;;;;;;4967924;28;20856;-64
2023/12/31 05:06:58;;;;;;;2.00;1.90;;;;;;;;;;4967773;28;20260;-64
2023/12/31 05:09:25;;;;;;;2.20;2.00;;;;;;;;;;4967821;28;20661;-65
2023/12/31 05:11:52;;;;;;;2.37;2.17;;;;;;;;;;4967224;28;20360;-64
2023/12/31 05:14:19;;;;;;;4.17;2.33;;;;;;;;;;4967787;28;20218;-64
2023/12/31 05:16:46;;;;;;;2.70;2.10;;;;;;;;;;4967796;28;20214;-64
2023/12/31 05:19:15;;;;;;;2.10;1.97;;;;;;;;;;4967874;28;20214;-64
2023/12/31 05:21:42;;;;;;;5.13;2.00;;;;;;;;;;4966961;28;20286;-64
2023/12/31 05:24:09;;;;;;;2.03;1.93;;;;;;;;;;4967084;28;20242;-64
2023/12/31 05:26:36;;;;;;;4.20;2.40;;;;;;;;;;4967441;28;20269;-64
2023/12/31 05:29:03;;;;;;;2.00;1.90;;;;;;;;;;4967767;28;20218;-64
2023/12/31 05:31:30;;;;;;;3.10;2.00;;;;;;;;;;4967680;28;20639;-64
2023/12/31 05:33:57;;;;;;;2.57;2.03;;;;;;;;;;4966951;28;20207;-64
2023/12/31 05:36:26;;;;;;;2.27;2.17;;;;;;;;;;4967279;28;20206;-64
2023/12/31 05:38:53;;;;;;;2.37;2.20;;;;;;;;;;4967413;28;20199;-64
2023/12/31 05:41:20;;;;;;;3.00;2.13;;;;;;;;;;4967362;28;20216;-64
2023/12/31 05:43:47;;;;;;;2.50;2.30;;;;;;;;;;4967097;28;20248;-64
2023/12/31 05:46:14;;;;;;;2.27;1.70;;;;;;;;;;4966915;28;20213;-64
2023/12/31 05:48:41;;;;;;;8.63;2.00;;;;;;;;;;4967443;28;20210;-64
2023/12/31 05:51:08;;;;;;;3.67;2.23;;;;;;;;;;4967282;28;20214;-64
2023/12/31 05:53:36;;;;;;;3.17;2.03;;;;;;;;;;4966791;28;20203;-64
2023/12/31 05:56:03;;;;;;;2.60;2.03;;;;;;;;;;4958389;28;20277;-64
2023/12/31 05:58:30;;;;;;;3.47;1.97;;;;;;;;;;4967537;28;20218;-64
2023/12/31 06:00:58;;;;;;;2.13;2.03;;;;;;;;;;4967169;28;20245;-64
2023/12/31 06:03:25;;;;;;;2.30;2.10;;;;;;;;;;4967226;28;20697;-64
2023/12/31 06:05:52;;;;;;;1.87;1.77;;;;;;;;;;4966851;28;20210;-64
2023/12/31 06:08:19;;;;;;;1.90;1.80;;;;;;;;;;4967183;28;21041;-64
2023/12/31 06:10:47;;;;;;;3.57;2.20;;;;;;;;;;4967161;28;20443;-64
2023/12/31 06:13:14;;;;;;;1.77;1.67;;;;;;;;;;4967185;28;20813;-64
2023/12/31 06:15:41;;;;;;;2.50;1.90;;;;;;;;;;4966622;28;20202;-63
2023/12/31 06:18:09;;;;;;;2.30;2.20;;;;;;;;;;4966776;28;20207;-64
2023/12/31 06:20:36;;;;;;;2.50;2.30;;;;;;;;;;4966792;28;20226;-64
2023/12/31 06:23:03;;;;;;;3.00;2.70;;;;;;;;;;4966672;28;20242;-63
2023/12/31 06:25:30;;;;;;;3.63;2.33;;;;;;;;;;4966508;28;20214;-64
2023/12/31 06:27:58;;;;;;;3.73;2.00;;;;;;;;;;4966566;28;20222;-64
2023/12/31 06:30:25;;;;;;;2.30;2.20;;;;;;;;;;4966597;28;20471;-64
2023/12/31 06:32:52;;;;;;;2.90;2.70;;;;;;;;;;4967076;28;20273;-64
2023/12/31 06:35:19;;;;;;;4.17;3.80;;;;;;;;;;4966134;28;21879;-64
2023/12/31 06:37:46;;;;;;;3.53;3.27;;;;;;;;;;4962845;28;20262;-64
2023/12/31 06:40:13;;;;;;;3.40;2.83;;;;;;;;;;4957129;28;20215;-64
2023/12/31 06:42:41;;;;;;;4.47;2.80;;;;;;;;;;4947619;29;20235;-64
2023/12/31 06:45:09;;;;;;;4.63;3.57;;;;;;;;;;4964272;28;20392;-63
2023/12/31 06:47:36;;;;;;;4.97;3.47;;;;;;;;;;4966336;28;20254;-64
2023/12/31 06:50:04;;;;;;;3.87;2.90;;;;;;;;;;4966523;28;20410;-64
2023/12/31 06:52:31;;;;;;;2.57;2.47;;;;;;;;;;4966952;28;20207;-64
2023/12/31 06:54:58;;;;;;;3.93;2.37;;;;;;;;;;4966684;28;20950;-64
2023/12/31 06:57:25;;;;;;;2.37;2.27;;;;;;;;;;4966340;28;20214;-64
2023/12/31 06:59:52;;;;;;;3.33;2.70;;;;;;;;;;4969623;28;20570;-64
2023/12/31 07:02:20;;;;;;;3.20;2.57;;;;;;;;;;4970255;28;20222;-64
2023/12/31 07:04:47;;;;;;;2.53;2.33;;;;;;;;;;4970164;28;20250;-64
2023/12/31 07:07:14;;;;;;;2.57;2.37;;;;;;;;;;4970038;28;20662;-64
2023/12/31 07:09:42;;;;;;;2.47;2.27;;;;;;;;;;4970277;28;20214;-64
2023/12/31 07:12:09;;;;;;;2.60;2.37;;;;;;;;;;4969684;28;20261;-64
2023/12/31 07:14:36;;;;;;;2.60;2.40;;;;;;;;;;4969891;28;20202;-64
2023/12/31 07:17:03;;;;;;;2.73;2.30;;;;;;;;;;4969655;28;20272;-64
2023/12/31 07:19:31;;;;;;;4.60;2.23;;;;;;;;;;4969524;28;20214;-64
2023/12/31 07:21:58;;;;;;;4.37;2.03;;;;;;;;;;4969555;28;20230;-64
2023/12/31 07:24:25;;;;;;;2.83;1.90;;;;;;;;;;4969594;28;20238;-64
2023/12/31 07:26:52;;;;;;;2.13;2.00;;;;;;;;;;4969611;28;20567;-63
2023/12/31 07:29:19;;;;;;;2.33;2.13;;;;;;;;;;4969482;28;20210;-63
2023/12/31 07:31:46;;;;;;;3.10;2.73;;;;;;;;;;4969787;28;20595;-64
2023/12/31 07:34:15;;;;;;;2.07;2.00;;;;;;;;;;4969240;28;20206;-64
2023/12/31 07:36:43;;;;;;;4.27;2.27;;;;;;;;;;4966265;28;20590;-64
2023/12/31 07:39:10;;;;;;;6.27;2.30;;;;;;;;;;4969516;28;20219;-64
2023/12/31 07:41:37;;;;;;;4.20;2.20;;;;;;;;;;4969255;28;20216;-64
2023/12/31 07:44:04;;;;;;;2.07;1.97;;;;;;;;;;4968837;28;20226;-64
2023/12/31 07:46:31;;;;;;;2.40;2.20;;;;;;;;;;4969337;28;20582;-64
2023/12/31 07:48:58;;;;;;;2.50;2.30;;;;;;;;;;4969002;28;20206;-64
2023/12/31 07:51:25;;;;;;;2.27;2.00;;;;;;;;;;4969382;28;20619;-64
2023/12/31 07:53:54;;;;;;;2.53;2.10;;;;;;;;;;4969014;28;20234;-64
2023/12/31 07:56:21;;;;;;;2.37;2.17;;;;;;;;;;4967741;28;20230;-64
2023/12/31 07:58:48;;;;;;;2.40;1.83;;;;;;;;;;4969093;28;20216;-64
2023/12/31 08:01:15;;;;;;;3.10;2.27;;;;;;;;;;4968189;28;20210;-64
2023/12/31 08:03:42;;;;;;;2.07;1.97;;;;;;;;;;4968904;28;20379;-64
2023/12/31 08:06:09;;;;;;;2.23;2.00;;;;;;;;;;4969271;28;20362;-64
2023/12/31 08:08:36;;;;;;;2.40;2.20;;;;;;;;;;4968179;28;20203;-64
2023/12/31 08:11:05;;;;;;;2.50;2.30;;;;;;;;;;4968177;28;20209;-64
2023/12/31 08:13:33;;;;;;;5.20;2.10;;;;;;;;;;4967924;28;20673;-64
2023/12/31 08:16:00;;;;;;;2.90;1.87;;;;;;;;;;4968753;28;20685;-64
2023/12/31 08:18:27;;;;;;;3.47;2.67;;;;;;;;;;4968809;28;20221;-64
2023/12/31 08:20:54;;;;;;;2.40;2.20;;;;;;;;;;4968295;28;20237;-64
2023/12/31 08:23:21;;;;;;;2.27;2.10;;;;;;;;;;4967714;28;20768;-62
2023/12/31 08:25:48;;;;;;;4.57;2.00;;;;;;;;;;4968456;28;20214;-64
2023/12/31 08:28:16;;;;;;;2.50;2.30;;;;;;;;;;4968127;28;20214;-65
2023/12/31 08:30:43;;;;;;;85.33;39.50;;;;;;;;;;4968523;28;20214;-64
2023/12/31 08:33:10;;;;;;;19.13;11.17;;;;;;;;;;4968525;28;20214;-64
2023/12/31 08:35:37;;;;;;;4.10;2.97;;;;;;;;;;4967882;28;20467;-64
2023/12/31 08:38:04;;;;;;;4.00;2.00;;;;;;;;;;4967720;28;20717;-64
2023/12/31 08:40:31;;;;;;;2.20;2.00;;;;;;;;;;4968337;28;20207;-65
2023/12/31 08:42:58;;;;;;;2.07;1.97;;;;;;;;;;4968203;28;20677;-64
2023/12/31 08:45:27;;;;;;;2.23;2.13;;;;;;;;;;4967881;28;20217;-64
2023/12/31 08:47:54;;;;;;;6.73;4.70;;;;;;;;;;4968046;28;20210;-64
2023/12/31 08:50:22;;;;;;;3.67;3.37;;;;;;;;;;4968243;28;20265;-64
2023/12/31 08:52:49;;;;;;;4.73;3.60;;;;;;;;;;4968306;28;20305;-65
2023/12/31 08:55:16;;;;;;;4.77;3.70;;;;;;;;;;4968137;28;20221;-64
2023/12/31 08:57:47;;;;;;;15.23;9.30;;;;;;;;;;4968033;28;20226;-64
2023/12/31 09:00:16;;;;;;;7.40;5.20;;;;;;;;;;4967708;28;20877;-64
2023/12/31 09:02:44;;;;;;;4.63;4.03;;;;;;;;;;4968102;28;20669;-64
2023/12/31 09:05:11;;;;;;;18.70;9.70;;;;;;;;;;4967793;28;20238;-65
2023/12/31 09:07:38;;;;;;;14.80;7.90;;;;;;;;;;4967888;28;20222;-64
2023/12/31 09:10:06;;;;;;;9.17;5.37;;;;;;;;;;4967399;28;20213;-64
2023/12/31 09:12:33;;;;;;;19.50;8.93;;;;;;;;;;4968080;28;20221;-65
2023/12/31 09:15:00;;;;;;;22.37;10.90;;;;;;;;;;4967817;28;20273;-64
2023/12/31 09:17:27;;;;;;;33.13;13.83;;;;;;;;;;4967451;28;20215;-64
2023/12/31 09:19:56;;;;;;;69.00;29.47;;;;;;;;;;4967468;28;20217;-64
2023/12/31 09:22:23;;;;;;;8.07;5.03;;;;;;;;;;4970194;28;20666;-64
2023/12/31 09:24:51;;;;;;;2.70;2.50;;;;;;;;;;4966938;28;20242;-64
2023/12/31 09:27:18;;;;;;;1.77;1.67;;;;;;;;;;4967575;28;20321;-64
2023/12/31 09:29:45;;;;;;;1.90;1.83;;;;;;;;;;4979598;28;20296;-65
2023/12/31 09:32:12;;;;;;;2.20;1.77;;;;;;;;;;4982588;28;20210;-64
2023/12/31 09:34:40;;;;;;;1.50;1.50;;;;;;;;;;4967609;28;20206;-64
2023/12/31 09:37:08;;;;;;;1.97;1.60;;;;;;;;;;4967785;28;20626;-64
2023/12/31 09:39:35;;;;;;;2.50;2.30;;;;;;;;;;4967252;28;20245;-65
2023/12/31 09:42:04;;;;;;;3.07;1.90;;;;;;;;;;4967502;28;20218;-64
2023/12/31 09:44:31;;;;;;;2.00;1.90;;;;;;;;;;4967181;28;20320;-64
2023/12/31 09:47:04;;;;;;;2.23;1.73;;;;;;;;;;4966834;28;20209;-64
2023/12/31 09:49:32;;;;;;;2.00;1.90;;;;;;;;;;4967697;28;20245;-64
2023/12/31 09:51:59;;;;;;;1.87;1.77;;;;;;;;;;4966888;28;20715;-64
2023/12/31 09:54:28;;;;;;;2.47;2.37;;;;;;;;;;4967240;28;20218;-64
2023/12/31 09:56:56;;;;;;;2.17;2.07;;;;;;;;;;4967263;28;20202;-64
2023/12/31 09:59:24;;;;;;;1.97;1.83;;;;;;;;;;4967632;28;20210;-64
2023/12/31 10:01:52;;;;;;;1.60;1.60;;;;;;;;;;4967175;28;20214;-64
2023/12/31 10:04:20;;;;;;;2.30;2.20;;;;;;;;;;4965368;28;20226;-64
2023/12/31 10:06:47;;;;;;;2.10;2.00;;;;;;;;;;4971483;28;20205;-63
2023/12/31 10:09:18;;;;;;;2.37;2.27;;;;;;;;;;4978020;28;20971;-64
2023/12/31 10:11:47;;;;;;;2.80;2.33;;;;;;;;;;4966983;28;20203;-64
2023/12/31 10:14:15;;;;;;;2.93;2.40;;;;;;;;;;4966737;28;20202;-64
2023/12/31 10:16:43;;;;;;;2.43;2.30;;;;;;;;;;4947835;29;20969;-64
2023/12/31 10:19:10;;;;;;;2.33;2.17;;;;;;;;;;4954780;28;20206;-64
2023/12/31 10:21:37;;;;;;;2.00;1.90;;;;;;;;;;4966965;28;20238;-64
2023/12/31 10:24:04;;;;;;;2.67;2.47;;;;;;;;;;4966617;28;20242;-64
2023/12/31 10:26:32;;;;;;;2.57;2.20;;;;;;;;;;4967130;28;20210;-66
2023/12/31 10:29:00;;;;;;;2.53;2.40;;;;;;;;;;4964680;28;20206;-64
2023/12/31 10:31:27;;;;;;;2.50;2.40;;;;;;;;;;4966127;28;20566;-65
2023/12/31 10:33:55;;;;;;;2.47;2.23;;;;;;;;;;4969011;28;20195;-65
2023/12/31 10:36:23;;;;;;;2.93;2.73;;;;;;;;;;4969377;28;20210;-65
2023/12/31 10:38:50;;;;;;;2.43;2.23;;;;;;;;;;4970276;28;20497;-65
2023/12/31 10:41:20;;;;;;;2.67;2.50;;;;;;;;;;4970111;28;20272;-66
2023/12/31 10:43:48;;;;;;;2.20;2.10;;;;;;;;;;4956529;28;20250;-66
2023/12/31 10:46:17;;;;;;;2.17;1.97;;;;;;;;;;4964389;28;20211;-66
2023/12/31 10:48:47;;;;;;;1.80;1.80;;;;;;;;;;4969896;28;20226;-67
2023/12/31 10:51:15;;;;;;;2.47;2.37;;;;;;;;;;4969671;28;20256;-65
2023/12/31 10:53:42;;;;;;;2.47;2.13;;;;;;;;;;4970146;28;20218;-67
2023/12/31 10:56:12;;;;;;;2.27;2.17;;;;;;;;;;4969366;28;20206;-65
2023/12/31 10:58:39;;;;;;;3.50;2.53;;;;;;;;;;4974604;28;20215;-65
2023/12/31 11:01:07;;;;;;;2.20;2.10;;;;;;;;;;4960734;28;20218;-65
2023/12/31 11:03:36;;;;;;;1.97;1.90;;;;;;;;;;4969938;28;20215;-65
2023/12/31 11:06:04;;;;;;;2.40;2.20;;;;;;;;;;4970003;28;20884;-64
2023/12/31 11:08:31;;;;;;;2.03;1.93;;;;;;;;;;4969952;28;20314;-64
2023/12/31 11:10:58;;;;;;;1.90;1.80;;;;;;;;;;4967781;28;20214;-64
2023/12/31 11:13:26;;;;;;;2.07;1.97;;;;;;;;;;4970078;28;20218;-65
2023/12/31 11:15:56;;;;;;;2.40;2.20;;;;;;;;;;4969925;28;20254;-64
2023/12/31 11:18:51;;;;;;;2.50;2.27;;;;;;;;;;4972677;28;20317;-65
2023/12/31 11:21:24;;;;;;;2.70;2.50;;;;;;;;;;4969884;28;20226;-64
2023/12/31 11:23:57;;;;;;;2.30;2.20;;;;;;;;;;4969204;28;20320;-64
2023/12/31 11:26:25;;;;;;;4.97;2.97;;;;;;;;;;4969634;28;20210;-64
2023/12/31 11:28:52;;;;;;;3.03;2.40;;;;;;;;;;4969112;28;20284;-64
2023/12/31 11:31:20;;;;;;;3.07;2.87;;;;;;;;;;4968255;28;20210;-65
2023/12/31 11:33:51;;;;;;;3.93;2.37;;;;;;;;;;4969387;28;20265;-65
2023/12/31 11:36:18;;;;;;;2.60;2.50;;;;;;;;;;4969469;28;20218;-65
2023/12/31 11:38:58;;;;;;;2.93;2.73;;;;;;;;;;4969506;28;20220;-64
2023/12/31 11:41:25;;;;;;;2.77;2.57;;;;;;;;;;4966425;28;20214;-65
2023/12/31 11:43:53;;;;;;;2.90;2.40;;;;;;;;;;4967233;28;20218;-65
2023/12/31 11:46:33;;;;;;;3.27;2.97;;;;;;;;;;4967285;28;20214;-70
2023/12/31 11:49:02;;;;;;;2.63;2.47;;;;;;;;;;4968739;28;20205;-66
2023/12/31 11:51:29;;;;;;;4.40;2.90;;;;;;;;;;4969848;28;20213;-71
2023/12/31 11:53:58;;;;;;;3.10;2.90;;;;;;;;;;4969059;28;20306;-69
2023/12/31 11:56:27;;;;;;;2.23;2.13;;;;;;;;;;4968325;28;20209;-70
2023/12/31 11:58:54;;;;;;;2.90;2.70;;;;;;;;;;4968523;28;20238;-72
2023/12/31 12:01:21;;;;;;;5.30;2.70;;;;;;;;;;4952765;28;20206;-67
2023/12/31 12:03:48;;;;;;;2.97;2.77;;;;;;;;;;4968713;28;20202;-67
2023/12/31 12:06:17;;;;;;;4.80;3.20;;;;;;;;;;4968496;28;20213;-67
2023/12/31 12:08:44;;;;;;;3.43;3.13;;;;;;;;;;4956286;28;20764;-71
2023/12/31 12:11:12;;;;;;;2.40;2.20;;;;;;;;;;4964879;28;20218;-70
2023/12/31 12:13:40;;;;;;;3.03;2.60;;;;;;;;;;4968376;28;20214;-64
2023/12/31 12:16:07;;;;;;;5.47;4.97;;;;;;;;;;4962487;28;20205;-64
2023/12/31 12:18:34;;;;;;;5.87;3.87;;;;;;;;;;4957744;28;20239;-63
2023/12/31 12:21:03;;;;;;;2.50;2.40;;;;;;;;;;4965659;28;20241;-63
2023/12/31 12:23:31;;;;;;;2.40;2.20;;;;;;;;;;4968307;28;20250;-65
2023/12/31 12:25:59;;;;;;;2.20;2.10;;;;;;;;;;4968060;28;20257;-64
2023/12/31 12:28:26;;;;;;;1.73;1.63;;;;;;;;;;4967816;28;20297;-63
2023/12/31 12:30:53;;;;;;;1.50;1.40;;;;;;;;;;4967955;28;20264;-64
2023/12/31 12:33:20;;;;;;;1.63;1.53;;;;;;;;;;4967793;28;20353;-64
2023/12/31 12:35:48;;;;;;;0.90;0.90;;;;;;;;;;4962511;28;20206;-64
2023/12/31 12:38:15;;;;;;;1.10;1.10;;;;;;;;;;4966107;28;20679;-64
2023/12/31 12:40:44;;;;;;;1.10;1.00;;;;;;;;;;4967909;28;20231;-64
2023/12/31 12:43:13;;;;;;;0.80;0.60;;;;;;;;;;4968030;28;20210;-64
2023/12/31 12:45:41;;;;;;;2.97;0.67;;;;;;;;;;4967707;28;20317;-64
2023/12/31 12:48:09;;;;;;;0.43;0.43;;;;;;;;;;4975027;28;20214;-64
2023/12/31 12:50:36;;;;;;;0.40;0.40;;;;;;;;;;4987815;28;20237;-64
2023/12/31 12:53:03;;;;;;;1.27;0.57;;;;;;;;;;4971648;28;20221;-64
2023/12/31 12:55:30;;;;;;;1.13;0.50;;;;;;;;;;4968366;28;20309;-64
2023/12/31 12:57:58;;;;;;;0.63;0.40;;;;;;;;;;4967620;28;20218;-64
2023/12/31 13:00:26;;;;;;;1.20;0.60;;;;;;;;;;4968190;28;20745;-64
2023/12/31 13:02:53;;;;;;;0.60;0.60;;;;;;;;;;4967129;28;20214;-65
2023/12/31 13:05:20;;;;;;;0.50;0.50;;;;;;;;;;4968065;28;20230;-64
2023/12/31 13:07:47;;;;;;;0.60;0.60;;;;;;;;;;4967677;28;20219;-65
2023/12/31 13:10:14;;;;;;;1.90;0.63;;;;;;;;;;4966662;28;20217;-65
2023/12/31 13:12:41;;;;;;;1.10;0.40;;;;;;;;;;4967751;28;20358;-65
2023/12/31 13:15:10;;;;;;;1.37;0.50;;;;;;;;;;4967674;28;20229;-66
2023/12/31 13:17:37;;;;;;;0.50;0.50;;;;;;;;;;4968946;28;20206;-65
2023/12/31 13:20:05;;;;;;;0.70;0.70;;;;;;;;;;4965706;28;20639;-65
2023/12/31 13:22:32;;;;;;;0.40;0.40;;;;;;;;;;4967268;28;20232;-64
2023/12/31 13:24:59;;;;;;;0.40;0.40;;;;;;;;;;4965231;28;20238;-64
2023/12/31 13:27:28;;;;;;;1.60;0.47;;;;;;;;;;4967104;28;20214;-64
2023/12/31 13:29:55;;;;;;;0.40;0.40;;;;;;;;;;4967719;28;20206;-64
2023/12/31 13:32:23;;;;;;;1.37;0.60;;;;;;;;;;4967192;28;20221;-64
2023/12/31 13:34:50;;;;;;;0.60;0.40;;;;;;;;;;4967307;28;20290;-64
2023/12/31 13:37:17;;;;;;;0.70;0.70;;;;;;;;;;4950110;28;20563;-64
2023/12/31 13:39:43;;;;;;;0.50;0.50;;;;;;;;;;4964963;28;20261;-64
2023/12/31 13:42:11;;;;;;;0.70;0.70;;;;;;;;;;4965379;28;20202;-64
2023/12/31 13:44:38;;;;;;;1.00;0.50;;;;;;;;;;4966432;28;20220;-64
2023/12/31 13:47:06;;;;;;;0.70;0.70;;;;;;;;;;4964442;28;20214;-64
2023/12/31 13:49:34;;;;;;;1.33;0.80;;;;;;;;;;4965928;28;20202;-64
2023/12/31 13:52:01;;;;;;;0.50;0.50;;;;;;;;;;4967101;28;20644;-64
2023/12/31 13:54:28;;;;;;;0.87;0.60;;;;;;;;;;4967294;28;20218;-64
2023/12/31 13:56:55;;;;;;;1.33;0.97;;;;;;;;;;4966343;28;20209;-65
2023/12/31 13:59:22;;;;;;;0.87;0.80;;;;;;;;;;4966623;28;20728;-64
2023/12/31 14:01:49;;;;;;;0.50;0.50;;;;;;;;;;4966633;28;20460;-64
2023/12/31 14:04:16;;;;;;;0.70;0.70;;;;;;;;;;4967285;28;20218;-64
2023/12/31 14:06:45;;;;;;;1.13;0.90;;;;;;;;;;4966926;28;20234;-64
2023/12/31 14:09:13;;;;;;;1.97;0.77;;;;;;;;;;4970150;28;20220;-64
2023/12/31 14:11:41;;;;;;;1.70;0.67;;;;;;;;;;4970794;28;20210;-64
2023/12/31 14:14:09;;;;;;;2.43;0.83;;;;;;;;;;4970796;28;20221;-64
2023/12/31 14:16:38;;;;;;;1.30;0.70;;;;;;;;;;4970933;28;20230;-64
2023/12/31 14:19:05;;;;;;;0.70;0.70;;;;;;;;;;4970692;28;20342;-64
2023/12/31 14:21:32;;;;;;;3.47;0.63;;;;;;;;;;4970989;28;20237;-64
2023/12/31 14:24:00;;;;;;;3.00;0.80;;;;;;;;;;4967725;28;20242;-65
2023/12/31 14:26:27;;;;;;;2.00;0.80;;;;;;;;;;4968273;28;20226;-63
2023/12/31 14:28:54;;;;;;;2.50;1.00;;;;;;;;;;4968101;28;20211;-63
2023/12/31 14:31:21;;;;;;;2.53;0.77;;;;;;;;;;4968226;28;20221;-64
2023/12/31 14:33:48;;;;;;;0.67;0.40;;;;;;;;;;4968819;28;20265;-64
2023/12/31 14:36:16;;;;;;;1.47;0.50;;;;;;;;;;4968744;28;20302;-63
2023/12/31 14:38:43;;;;;;;0.70;0.70;;;;;;;;;;4968710;28;20211;-63
2023/12/31 14:41:12;;;;;;;2.30;0.70;;;;;;;;;;4968529;28;20206;-64
2023/12/31 14:43:39;;;;;;;1.63;0.77;;;;;;;;;;4968052;28;20289;-64
2023/12/31 14:46:06;;;;;;;1.00;0.83;;;;;;;;;;4968241;28;20234;-64